sensor_id;sensor_type;location;lat;lon;timestamp;P1;durP1;ratioP1;P2;durP2;ratioP2
1693;SDS011;71975;47.068;15.408;2024-01-25T00:00:55;2.37;;;1.20;;
1693;SDS011;71975;47.068;15.408;2024-01-25T00:05:58;2.40;;;1.10;;
1693;SDS011;71975;47.068;15.408;2024-01-25T00:11:03;3.20;;;1.03;;
1693;SDS011;71975;47.068;15.408;2024-01-25T00:16:06;1.57;;;0.93;;
1693;SDS011;71975;47.068;15.408;2024-01-25T00:21:09;1.90;;;1.63;;
1693;SDS011;71975;47.068;15.408;2024-01-25T00:26:14;4.47;;;1.03;;
1693;SDS011;71975;47.068;15.408;2024-01-25T00:31:17;1.33;;;0.97;;
1693;SDS011;71975;47.068;15.408;2024-01-25T00:36:20;2.60;;;1.13;;
1693;SDS011;71975;47.068;15.408;2024-01-25T00:41:25;3.90;;;1.13;;
1693;SDS011;71975;47.068;15.408;2024-01-25T00:46:28;1.60;;;1.00;;
1693;SDS011;71975;47.068;15.408;2024-01-25T00:51:32;2.00;;;0.90;;
1693;SDS011;71975;47.068;15.408;2024-01-25T00:56:37;2.67;;;0.90;;
1693;SDS011;71975;47.068;15.408;2024-01-25T01:01:40;1.43;;;0.77;;
1693;SDS011;71975;47.068;15.408;2024-01-25T01:06:47;4.43;;;0.97;;
1693;SDS011;71975;47.068;15.408;2024-01-25T01:11:52;1.67;;;0.67;;
1693;SDS011;71975;47.068;15.408;2024-01-25T01:16:55;2.27;;;0.70;;
1693;SDS011;71975;47.068;15.408;2024-01-25T01:21:58;2.47;;;1.23;;
1693;SDS011;71975;47.068;15.408;2024-01-25T01:27:02;1.17;;;0.90;;
1693;SDS011;71975;47.068;15.408;2024-01-25T01:32:06;3.10;;;1.20;;
1693;SDS011;71975;47.068;15.408;2024-01-25T01:37:09;4.17;;;0.87;;
1693;SDS011;71975;47.068;15.408;2024-01-25T01:42:13;1.40;;;0.97;;
1693;SDS011;71975;47.068;15.408;2024-01-25T01:47:16;5.43;;;1.93;;
1693;SDS011;71975;47.068;15.408;2024-01-25T01:52:19;2.63;;;1.17;;
1693;SDS011;71975;47.068;15.408;2024-01-25T01:57:24;1.40;;;0.80;;
1693;SDS011;71975;47.068;15.408;2024-01-25T02:02:29;1.83;;;0.97;;
1693;SDS011;71975;47.068;15.408;2024-01-25T02:07:32;1.20;;;0.70;;
1693;SDS011;71975;47.068;15.408;2024-01-25T02:12:36;1.97;;;1.03;;
1693;SDS011;71975;47.068;15.408;2024-01-25T02:17:40;3.20;;;1.30;;
1693;SDS011;71975;47.068;15.408;2024-01-25T02:22:44;1.27;;;0.67;;
1693;SDS011;71975;47.068;15.408;2024-01-25T02:27:47;4.03;;;1.10;;
1693;SDS011;71975;47.068;15.408;2024-01-25T02:32:50;1.70;;;1.20;;
1693;SDS011;71975;47.068;15.408;2024-01-25T02:37:55;1.33;;;1.00;;
1693;SDS011;71975;47.068;15.408;2024-01-25T02:42:58;3.63;;;1.10;;
1693;SDS011;71975;47.068;15.408;2024-01-25T02:48:01;4.83;;;1.00;;
1693;SDS011;71975;47.068;15.408;2024-01-25T02:53:06;2.60;;;1.10;;
1693;SDS011;71975;47.068;15.408;2024-01-25T02:58:09;1.47;;;1.00;;
1693;SDS011;71975;47.068;15.408;2024-01-25T03:03:12;1.63;;;0.73;;
1693;SDS011;71975;47.068;15.408;2024-01-25T03:08:16;2.10;;;1.17;;
1693;SDS011;71975;47.068;15.408;2024-01-25T03:13:19;1.33;;;0.70;;
1693;SDS011;71975;47.068;15.408;2024-01-25T03:18:22;2.03;;;0.97;;
1693;SDS011;71975;47.068;15.408;2024-01-25T03:23:27;3.20;;;0.93;;
1693;SDS011;71975;47.068;15.408;2024-01-25T03:28:30;2.53;;;0.90;;
1693;SDS011;71975;47.068;15.408;2024-01-25T03:33:33;1.47;;;1.00;;
1693;SDS011;71975;47.068;15.408;2024-01-25T03:38:38;2.03;;;1.17;;
1693;SDS011;71975;47.068;15.408;2024-01-25T03:43:41;3.90;;;1.10;;
1693;SDS011;71975;47.068;15.408;2024-01-25T03:48:46;4.73;;;1.00;;
1693;SDS011;71975;47.068;15.408;2024-01-25T03:53:50;1.60;;;1.00;;
1693;SDS011;71975;47.068;15.408;2024-01-25T03:58:54;1.33;;;0.63;;
1693;SDS011;71975;47.068;15.408;2024-01-25T04:03:57;2.07;;;0.90;;
1693;SDS011;71975;47.068;15.408;2024-01-25T04:09:01;0.67;;;0.50;;
1693;SDS011;71975;47.068;15.408;2024-01-25T04:14:05;1.87;;;0.80;;
1693;SDS011;71975;47.068;15.408;2024-01-25T04:19:08;1.37;;;0.83;;
1693;SDS011;71975;47.068;15.408;2024-01-25T04:24:15;1.10;;;0.50;;
1693;SDS011;71975;47.068;15.408;2024-01-25T04:29:18;2.13;;;0.70;;
1693;SDS011;71975;47.068;15.408;2024-01-25T04:34:21;2.38;;;1.00;;
1693;SDS011;71975;47.068;15.408;2024-01-25T04:39:26;1.47;;;0.73;;
1693;SDS011;71975;47.068;15.408;2024-01-25T04:44:29;2.30;;;1.20;;
1693;SDS011;71975;47.068;15.408;2024-01-25T04:49:32;1.70;;;0.93;;
1693;SDS011;71975;47.068;15.408;2024-01-25T04:54:36;1.43;;;0.80;;
1693;SDS011;71975;47.068;15.408;2024-01-25T04:59:39;2.60;;;1.00;;
1693;SDS011;71975;47.068;15.408;2024-01-25T05:04:42;1.57;;;1.03;;
1693;SDS011;71975;47.068;15.408;2024-01-25T05:09:48;1.13;;;0.60;;
1693;SDS011;71975;47.068;15.408;2024-01-25T05:14:51;1.87;;;1.50;;
1693;SDS011;71975;47.068;15.408;2024-01-25T05:19:54;2.60;;;0.97;;
1693;SDS011;71975;47.068;15.408;2024-01-25T05:24:59;4.00;;;0.73;;
1693;SDS011;71975;47.068;15.408;2024-01-25T05:30:02;2.90;;;1.00;;
1693;SDS011;71975;47.068;15.408;2024-01-25T05:35:06;4.83;;;1.30;;
1693;SDS011;71975;47.068;15.408;2024-01-25T05:40:12;1.77;;;0.60;;
1693;SDS011;71975;47.068;15.408;2024-01-25T05:45:15;2.40;;;0.93;;
1693;SDS011;71975;47.068;15.408;2024-01-25T05:50:21;2.43;;;1.43;;
1693;SDS011;71975;47.068;15.408;2024-01-25T05:55:25;1.83;;;0.70;;
1693;SDS011;71975;47.068;15.408;2024-01-25T06:00:28;2.50;;;1.10;;
1693;SDS011;71975;47.068;15.408;2024-01-25T06:05:31;2.30;;;1.00;;
1693;SDS011;71975;47.068;15.408;2024-01-25T06:10:36;1.07;;;0.70;;
1693;SDS011;71975;47.068;15.408;2024-01-25T06:15:39;0.80;;;0.60;;
1693;SDS011;71975;47.068;15.408;2024-01-25T06:20:42;1.27;;;0.67;;
1693;SDS011;71975;47.068;15.408;2024-01-25T06:25:46;1.63;;;0.90;;
1693;SDS011;71975;47.068;15.408;2024-01-25T06:30:49;4.57;;;1.17;;
1693;SDS011;71975;47.068;15.408;2024-01-25T06:35:53;2.00;;;0.90;;
1693;SDS011;71975;47.068;15.408;2024-01-25T06:40:57;1.00;;;0.60;;
1693;SDS011;71975;47.068;15.408;2024-01-25T06:46:01;1.17;;;0.60;;
1693;SDS011;71975;47.068;15.408;2024-01-25T06:51:04;0.73;;;0.40;;
1693;SDS011;71975;47.068;15.408;2024-01-25T06:56:08;0.70;;;0.30;;
1693;SDS011;71975;47.068;15.408;2024-01-25T07:01:11;2.40;;;0.60;;
1693;SDS011;71975;47.068;15.408;2024-01-25T07:06:15;0.70;;;0.30;;
1693;SDS011;71975;47.068;15.408;2024-01-25T07:11:20;2.63;;;0.60;;
1693;SDS011;71975;47.068;15.408;2024-01-25T07:16:23;2.30;;;0.40;;
1693;SDS011;71975;47.068;15.408;2024-01-25T07:21:26;2.40;;;0.50;;
1693;SDS011;71975;47.068;15.408;2024-01-25T07:26:31;0.60;;;0.40;;
1693;SDS011;71975;47.068;15.408;2024-01-25T07:31:34;0.93;;;0.43;;
1693;SDS011;71975;47.068;15.408;2024-01-25T07:36:37;1.10;;;0.43;;
1693;SDS011;71975;47.068;15.408;2024-01-25T07:41:41;1.67;;;0.50;;
1693;SDS011;71975;47.068;15.408;2024-01-25T07:46:44;1.07;;;0.30;;
1693;SDS011;71975;47.068;15.408;2024-01-25T07:51:48;0.57;;;0.30;;
1693;SDS011;71975;47.068;15.408;2024-01-25T07:56:53;1.37;;;0.40;;
1693;SDS011;71975;47.068;15.408;2024-01-25T08:01:56;0.90;;;0.30;;
1693;SDS011;71975;47.068;15.408;2024-01-25T08:06:59;3.60;;;1.10;;
1693;SDS011;71975;47.068;15.408;2024-01-25T08:12:04;0.50;;;0.30;;
1693;SDS011;71975;47.068;15.408;2024-01-25T08:17:07;0.50;;;0.30;;
1693;SDS011;71975;47.068;15.408;2024-01-25T08:22:10;1.13;;;0.40;;
1693;SDS011;71975;47.068;15.408;2024-01-25T08:27:15;1.37;;;0.40;;
1693;SDS011;71975;47.068;15.408;2024-01-25T08:32:18;0.60;;;0.30;;
1693;SDS011;71975;47.068;15.408;2024-01-25T08:37:20;0.90;;;0.50;;
1693;SDS011;71975;47.068;15.408;2024-01-25T08:42:25;1.10;;;0.80;;
1693;SDS011;71975;47.068;15.408;2024-01-25T08:47:28;0.70;;;0.40;;
1693;SDS011;71975;47.068;15.408;2024-01-25T08:52:33;2.43;;;0.40;;
1693;SDS011;71975;47.068;15.408;2024-01-25T08:57:37;1.10;;;0.40;;
1693;SDS011;71975;47.068;15.408;2024-01-25T09:02:41;0.70;;;0.30;;
1693;SDS011;71975;47.068;15.408;2024-01-25T09:07:45;0.70;;;0.30;;
1693;SDS011;71975;47.068;15.408;2024-01-25T09:12:50;0.60;;;0.40;;
1693;SDS011;71975;47.068;15.408;2024-01-25T09:17:53;1.40;;;0.60;;
1693;SDS011;71975;47.068;15.408;2024-01-25T09:22:56;1.80;;;0.70;;
1693;SDS011;71975;47.068;15.408;2024-01-25T09:28:00;1.00;;;0.67;;
1693;SDS011;71975;47.068;15.408;2024-01-25T09:33:06;0.80;;;0.57;;
1693;SDS011;71975;47.068;15.408;2024-01-25T09:38:09;0.90;;;0.43;;
1693;SDS011;71975;47.068;15.408;2024-01-25T09:43:13;1.17;;;0.60;;
1693;SDS011;71975;47.068;15.408;2024-01-25T09:48:17;2.33;;;1.20;;
1693;SDS011;71975;47.068;15.408;2024-01-25T09:53:21;2.97;;;1.10;;
1693;SDS011;71975;47.068;15.408;2024-01-25T09:58:29;8.13;;;2.77;;
1693;SDS011;71975;47.068;15.408;2024-01-25T10:03:42;4.00;;;1.87;;
1693;SDS011;71975;47.068;15.408;2024-01-25T10:08:46;4.47;;;1.30;;
1693;SDS011;71975;47.068;15.408;2024-01-25T10:13:50;2.97;;;1.10;;
1693;SDS011;71975;47.068;15.408;2024-01-25T10:18:55;3.10;;;0.80;;
1693;SDS011;71975;47.068;15.408;2024-01-25T10:24:01;2.40;;;1.77;;
1693;SDS011;71975;47.068;15.408;2024-01-25T10:29:06;2.53;;;1.40;;
1693;SDS011;71975;47.068;15.408;2024-01-25T10:34:10;1.67;;;0.90;;
1693;SDS011;71975;47.068;15.408;2024-01-25T10:39:15;3.20;;;1.23;;
1693;SDS011;71975;47.068;15.408;2024-01-25T10:44:21;5.10;;;1.67;;
1693;SDS011;71975;47.068;15.408;2024-01-25T10:49:24;3.83;;;1.40;;
1693;SDS011;71975;47.068;15.408;2024-01-25T10:54:28;2.97;;;1.40;;
1693;SDS011;71975;47.068;15.408;2024-01-25T10:59:33;3.47;;;1.50;;
1693;SDS011;71975;47.068;15.408;2024-01-25T11:04:36;4.77;;;1.47;;
1693;SDS011;71975;47.068;15.408;2024-01-25T11:09:40;3.20;;;1.00;;
1693;SDS011;71975;47.068;15.408;2024-01-25T11:14:44;4.27;;;1.50;;
1693;SDS011;71975;47.068;15.408;2024-01-25T11:19:48;2.10;;;0.90;;
1693;SDS011;71975;47.068;15.408;2024-01-25T11:24:51;3.73;;;1.23;;
1693;SDS011;71975;47.068;15.408;2024-01-25T11:29:56;1.80;;;1.10;;
1693;SDS011;71975;47.068;15.408;2024-01-25T11:34:59;2.23;;;1.07;;
1693;SDS011;71975;47.068;15.408;2024-01-25T11:40:03;3.23;;;1.27;;
1693;SDS011;71975;47.068;15.408;2024-01-25T11:45:09;3.77;;;1.13;;
1693;SDS011;71975;47.068;15.408;2024-01-25T11:50:13;2.27;;;1.10;;
1693;SDS011;71975;47.068;15.408;2024-01-25T11:55:16;2.23;;;1.17;;
1693;SDS011;71975;47.068;15.408;2024-01-25T12:00:21;1.77;;;1.00;;
1693;SDS011;71975;47.068;15.408;2024-01-25T12:05:24;3.07;;;1.30;;
1693;SDS011;71975;47.068;15.408;2024-01-25T12:10:29;3.10;;;1.10;;
1693;SDS011;71975;47.068;15.408;2024-01-25T12:15:33;4.63;;;1.33;;
1693;SDS011;71975;47.068;15.408;2024-01-25T12:20:36;3.37;;;1.33;;
1693;SDS011;71975;47.068;15.408;2024-01-25T12:25:39;4.20;;;1.20;;
1693;SDS011;71975;47.068;15.408;2024-01-25T12:30:44;3.10;;;1.40;;
1693;SDS011;71975;47.068;15.408;2024-01-25T12:35:47;3.63;;;1.70;;
1693;SDS011;71975;47.068;15.408;2024-01-25T12:40:51;3.20;;;1.63;;
1693;SDS011;71975;47.068;15.408;2024-01-25T12:45:56;3.37;;;1.53;;
1693;SDS011;71975;47.068;15.408;2024-01-25T12:51:17;3.40;;;1.60;;
1693;SDS011;71975;47.068;15.408;2024-01-25T12:56:20;3.50;;;1.87;;
1693;SDS011;71975;47.068;15.408;2024-01-25T13:01:26;3.57;;;1.60;;
1693;SDS011;71975;47.068;15.408;2024-01-25T13:06:29;4.00;;;1.47;;
1693;SDS011;71975;47.068;15.408;2024-01-25T13:11:32;2.60;;;1.77;;
1693;SDS011;71975;47.068;15.408;2024-01-25T13:16:36;4.97;;;1.97;;
1693;SDS011;71975;47.068;15.408;2024-01-25T13:21:40;3.80;;;1.87;;
1693;SDS011;71975;47.068;15.408;2024-01-25T13:26:43;2.53;;;1.77;;
1693;SDS011;71975;47.068;15.408;2024-01-25T13:31:47;3.63;;;1.63;;
1693;SDS011;71975;47.068;15.408;2024-01-25T13:36:50;4.07;;;2.33;;
1693;SDS011;71975;47.068;15.408;2024-01-25T13:41:53;2.40;;;1.47;;
1693;SDS011;71975;47.068;15.408;2024-01-25T13:46:59;4.83;;;1.70;;
1693;SDS011;71975;47.068;15.408;2024-01-25T13:52:03;3.90;;;1.97;;
1693;SDS011;71975;47.068;15.408;2024-01-25T13:57:06;2.30;;;1.70;;
1693;SDS011;71975;47.068;15.408;2024-01-25T14:02:11;3.67;;;1.90;;
1693;SDS011;71975;47.068;15.408;2024-01-25T14:07:15;2.63;;;1.47;;
1693;SDS011;71975;47.068;15.408;2024-01-25T14:12:18;3.43;;;1.47;;
1693;SDS011;71975;47.068;15.408;2024-01-25T14:17:23;4.43;;;2.10;;
1693;SDS011;71975;47.068;15.408;2024-01-25T14:22:26;2.83;;;1.30;;
1693;SDS011;71975;47.068;15.408;2024-01-25T14:27:34;5.70;;;1.40;;
1693;SDS011;71975;47.068;15.408;2024-01-25T14:32:39;3.47;;;1.60;;
1693;SDS011;71975;47.068;15.408;2024-01-25T14:37:42;4.30;;;2.07;;
1693;SDS011;71975;47.068;15.408;2024-01-25T14:42:45;3.43;;;1.53;;
1693;SDS011;71975;47.068;15.408;2024-01-25T14:47:49;3.00;;;1.83;;
1693;SDS011;71975;47.068;15.408;2024-01-25T14:52:52;2.10;;;1.13;;
1693;SDS011;71975;47.068;15.408;2024-01-25T14:57:55;4.23;;;1.43;;
1693;SDS011;71975;47.068;15.408;2024-01-25T15:02:59;3.13;;;1.07;;
1693;SDS011;71975;47.068;15.408;2024-01-25T15:08:03;8.20;;;1.67;;
1693;SDS011;71975;47.068;15.408;2024-01-25T15:13:06;6.47;;;2.57;;
1693;SDS011;71975;47.068;15.408;2024-01-25T15:18:11;3.27;;;1.30;;
1693;SDS011;71975;47.068;15.408;2024-01-25T15:23:14;2.53;;;1.87;;
1693;SDS011;71975;47.068;15.408;2024-01-25T15:28:17;6.67;;;2.20;;
1693;SDS011;71975;47.068;15.408;2024-01-25T15:33:23;8.60;;;2.90;;
1693;SDS011;71975;47.068;15.408;2024-01-25T15:38:26;5.70;;;2.63;;
1693;SDS011;71975;47.068;15.408;2024-01-25T15:43:29;6.03;;;2.30;;
1693;SDS011;71975;47.068;15.408;2024-01-25T15:48:34;3.73;;;2.20;;
1693;SDS011;71975;47.068;15.408;2024-01-25T15:53:37;4.83;;;2.23;;
1693;SDS011;71975;47.068;15.408;2024-01-25T15:58:40;3.53;;;2.03;;
1693;SDS011;71975;47.068;15.408;2024-01-25T16:03:44;3.23;;;1.77;;
1693;SDS011;71975;47.068;15.408;2024-01-25T16:08:47;4.23;;;1.33;;
1693;SDS011;71975;47.068;15.408;2024-01-25T16:13:50;2.80;;;1.70;;
1693;SDS011;71975;47.068;15.408;2024-01-25T16:18:54;3.50;;;1.60;;
1693;SDS011;71975;47.068;15.408;2024-01-25T16:23:57;3.67;;;1.60;;
1693;SDS011;71975;47.068;15.408;2024-01-25T16:29:01;2.70;;;1.67;;
1693;SDS011;71975;47.068;15.408;2024-01-25T16:34:05;3.47;;;1.63;;
1693;SDS011;71975;47.068;15.408;2024-01-25T16:39:08;6.43;;;2.00;;
1693;SDS011;71975;47.068;15.408;2024-01-25T16:44:11;2.20;;;1.60;;
1693;SDS011;71975;47.068;15.408;2024-01-25T16:49:16;3.73;;;1.70;;
1693;SDS011;71975;47.068;15.408;2024-01-25T16:54:19;3.67;;;1.43;;
1693;SDS011;71975;47.068;15.408;2024-01-25T16:59:22;6.90;;;3.33;;
1693;SDS011;71975;47.068;15.408;2024-01-25T17:04:26;2.47;;;1.50;;
1693;SDS011;71975;47.068;15.408;2024-01-25T17:09:30;5.67;;;1.83;;
1693;SDS011;71975;47.068;15.408;2024-01-25T17:14:32;6.00;;;2.43;;
1693;SDS011;71975;47.068;15.408;2024-01-25T17:19:37;2.40;;;1.00;;
1693;SDS011;71975;47.068;15.408;2024-01-25T17:24:40;3.27;;;2.03;;
1693;SDS011;71975;47.068;15.408;2024-01-25T17:29:44;9.60;;;2.97;;
1693;SDS011;71975;47.068;15.408;2024-01-25T17:34:49;6.97;;;3.83;;
1693;SDS011;71975;47.068;15.408;2024-01-25T17:39:52;6.07;;;3.80;;
1693;SDS011;71975;47.068;15.408;2024-01-25T17:44:55;3.20;;;2.47;;
1693;SDS011;71975;47.068;15.408;2024-01-25T17:49:59;3.70;;;2.47;;
1693;SDS011;71975;47.068;15.408;2024-01-25T17:55:03;8.97;;;3.60;;
1693;SDS011;71975;47.068;15.408;2024-01-25T18:00:07;4.83;;;3.20;;
1693;SDS011;71975;47.068;15.408;2024-01-25T18:05:13;3.73;;;2.80;;
1693;SDS011;71975;47.068;15.408;2024-01-25T18:10:16;5.53;;;3.20;;
1693;SDS011;71975;47.068;15.408;2024-01-25T18:15:20;7.70;;;3.10;;
1693;SDS011;71975;47.068;15.408;2024-01-25T18:20:24;4.30;;;3.47;;
1693;SDS011;71975;47.068;15.408;2024-01-25T18:25:28;7.50;;;4.40;;
1693;SDS011;71975;47.068;15.408;2024-01-25T18:30:32;8.33;;;4.70;;
1693;SDS011;71975;47.068;15.408;2024-01-25T18:35:38;8.33;;;4.77;;
1693;SDS011;71975;47.068;15.408;2024-01-25T18:40:42;6.77;;;5.57;;
1693;SDS011;71975;47.068;15.408;2024-01-25T18:45:49;7.20;;;5.20;;
1693;SDS011;71975;47.068;15.408;2024-01-25T18:50:56;11.20;;;8.40;;
1693;SDS011;71975;47.068;15.408;2024-01-25T18:56:02;10.10;;;6.23;;
1693;SDS011;71975;47.068;15.408;2024-01-25T19:01:09;12.27;;;7.07;;
1693;SDS011;71975;47.068;15.408;2024-01-25T19:06:18;8.73;;;7.10;;
1693;SDS011;71975;47.068;15.408;2024-01-25T19:11:26;9.23;;;5.30;;
1693;SDS011;71975;47.068;15.408;2024-01-25T19:16:32;13.33;;;8.87;;
1693;SDS011;71975;47.068;15.408;2024-01-25T19:21:39;24.23;;;11.33;;
1693;SDS011;71975;47.068;15.408;2024-01-25T19:26:45;7.63;;;6.83;;
1693;SDS011;71975;47.068;15.408;2024-01-25T19:31:51;12.20;;;6.40;;
1693;SDS011;71975;47.068;15.408;2024-01-25T19:36:57;9.93;;;7.67;;
1693;SDS011;71975;47.068;15.408;2024-01-25T19:42:02;23.90;;;14.20;;
1693;SDS011;71975;47.068;15.408;2024-01-25T19:47:08;12.33;;;8.23;;
1693;SDS011;71975;47.068;15.408;2024-01-25T19:52:15;10.50;;;6.87;;
1693;SDS011;71975;47.068;15.408;2024-01-25T19:57:21;10.73;;;7.80;;
1693;SDS011;71975;47.068;15.408;2024-01-25T20:02:27;13.47;;;8.57;;
1693;SDS011;71975;47.068;15.408;2024-01-25T20:07:35;13.40;;;7.10;;
1693;SDS011;71975;47.068;15.408;2024-01-25T20:12:42;9.13;;;6.73;;
1693;SDS011;71975;47.068;15.408;2024-01-25T20:17:47;8.03;;;7.23;;
1693;SDS011;71975;47.068;15.408;2024-01-25T20:22:54;35.90;;;26.70;;
1693;SDS011;71975;47.068;15.408;2024-01-25T20:28:00;10.77;;;6.80;;
1693;SDS011;71975;47.068;15.408;2024-01-25T20:33:06;11.90;;;7.80;;
1693;SDS011;71975;47.068;15.408;2024-01-25T20:38:14;10.70;;;6.27;;
1693;SDS011;71975;47.068;15.408;2024-01-25T20:43:20;9.57;;;6.60;;
1693;SDS011;71975;47.068;15.408;2024-01-25T20:48:26;13.10;;;6.97;;
1693;SDS011;71975;47.068;15.408;2024-01-25T20:53:33;11.53;;;7.10;;
1693;SDS011;71975;47.068;15.408;2024-01-25T20:58:38;18.50;;;8.90;;
1693;SDS011;71975;47.068;15.408;2024-01-25T21:03:41;15.10;;;7.83;;
1693;SDS011;71975;47.068;15.408;2024-01-25T21:08:46;11.23;;;7.30;;
1693;SDS011;71975;47.068;15.408;2024-01-25T21:13:50;9.00;;;7.37;;
1693;SDS011;71975;47.068;15.408;2024-01-25T21:18:53;11.67;;;6.40;;
1693;SDS011;71975;47.068;15.408;2024-01-25T21:23:59;7.40;;;5.20;;
1693;SDS011;71975;47.068;15.408;2024-01-25T21:29:02;10.60;;;7.07;;
1693;SDS011;71975;47.068;15.408;2024-01-25T21:34:05;11.13;;;7.80;;
1693;SDS011;71975;47.068;15.408;2024-01-25T21:39:09;8.53;;;6.37;;
1693;SDS011;71975;47.068;15.408;2024-01-25T21:44:12;10.50;;;7.77;;
1693;SDS011;71975;47.068;15.408;2024-01-25T21:49:15;12.70;;;7.70;;
1693;SDS011;71975;47.068;15.408;2024-01-25T21:54:22;10.80;;;7.20;;
1693;SDS011;71975;47.068;15.408;2024-01-25T21:59:25;10.20;;;7.00;;
1693;SDS011;71975;47.068;15.408;2024-01-25T22:04:28;12.20;;;6.80;;
1693;SDS011;71975;47.068;15.408;2024-01-25T22:09:32;10.93;;;8.20;;
1693;SDS011;71975;47.068;15.408;2024-01-25T22:14:36;11.90;;;6.80;;
1693;SDS011;71975;47.068;15.408;2024-01-25T22:19:39;13.03;;;6.07;;
1693;SDS011;71975;47.068;15.408;2024-01-25T22:24:43;10.80;;;6.47;;
1693;SDS011;71975;47.068;15.408;2024-01-25T22:29:46;11.17;;;5.53;;
1693;SDS011;71975;47.068;15.408;2024-01-25T22:34:49;13.30;;;7.07;;
1693;SDS011;71975;47.068;15.408;2024-01-25T22:39:54;12.40;;;7.43;;
1693;SDS011;71975;47.068;15.408;2024-01-25T22:44:57;12.87;;;8.07;;
1693;SDS011;71975;47.068;15.408;2024-01-25T22:49:59;7.73;;;6.27;;
1693;SDS011;71975;47.068;15.408;2024-01-25T23:35:10;10.70;;;8.03;;
1693;SDS011;71975;47.068;15.408;2024-01-25T23:40:14;12.97;;;7.90;;
1693;SDS011;71975;47.068;15.408;2024-01-25T23:45:18;14.03;;;7.50;;
1693;SDS011;71975;47.068;15.408;2024-01-25T23:50:24;13.37;;;8.40;;
1693;SDS011;71975;47.068;15.408;2024-01-25T23:55:28;10.30;;;7.30;;
